sensor_id;sensor_type;location;lat;lon;timestamp;temperature;humidity
30280;DHT22;17097;50.916;5.344;2022-08-21T00:01:46;18.60;99.90
30280;DHT22;17097;50.916;5.344;2022-08-21T00:04:12;18.60;99.90
30280;DHT22;17097;50.916;5.344;2022-08-21T00:06:38;18.60;99.90
30280;DHT22;17097;50.916;5.344;2022-08-21T00:09:06;18.60;99.90
30280;DHT22;17097;50.916;5.344;2022-08-21T00:11:34;18.70;99.90
30280;DHT22;17097;50.916;5.344;2022-08-21T00:14:01;18.70;99.90
30280;DHT22;17097;50.916;5.344;2022-08-21T00:16:27;18.60;99.90
30280;DHT22;17097;50.916;5.344;2022-08-21T00:18:52;18.60;99.90
30280;DHT22;17097;50.916;5.344;2022-08-21T00:21:18;18.60;99.90
30280;DHT22;17097;50.916;5.344;2022-08-21T00:23:44;18.50;99.90
30280;DHT22;17097;50.916;5.344;2022-08-21T00:26:10;18.50;99.90
30280;DHT22;17097;50.916;5.344;2022-08-21T00:28:36;18.50;99.90
30280;DHT22;17097;50.916;5.344;2022-08-21T00:31:02;18.40;99.90
30280;DHT22;17097;50.916;5.344;2022-08-21T00:33:30;18.40;99.90
30280;DHT22;17097;50.916;5.344;2022-08-21T00:35:55;18.40;99.90
30280;DHT22;17097;50.916;5.344;2022-08-21T00:38:21;18.40;99.90
30280;DHT22;17097;50.916;5.344;2022-08-21T00:40:57;18.40;99.90
30280;DHT22;17097;50.916;5.344;2022-08-21T00:43:27;18.30;99.90
30280;DHT22;17097;50.916;5.344;2022-08-21T00:45:54;18.30;99.90
30280;DHT22;17097;50.916;5.344;2022-08-21T00:48:21;18.20;99.90
30280;DHT22;17097;50.916;5.344;2022-08-21T00:50:58;18.10;99.90
30280;DHT22;17097;50.916;5.344;2022-08-21T00:53:25;18.10;99.90
30280;DHT22;17097;50.916;5.344;2022-08-21T00:55:53;18.10;99.90
30280;DHT22;17097;50.916;5.344;2022-08-21T00:58:20;18.20;99.90
30280;DHT22;17097;50.916;5.344;2022-08-21T01:00:49;18.10;99.90
30280;DHT22;17097;50.916;5.344;2022-08-21T01:03:18;18.00;99.90
30280;DHT22;17097;50.916;5.344;2022-08-21T01:05:44;18.00;99.90
30280;DHT22;17097;50.916;5.344;2022-08-21T01:08:11;18.00;99.90
30280;DHT22;17097;50.916;5.344;2022-08-21T01:10:37;18.00;99.90
30280;DHT22;17097;50.916;5.344;2022-08-21T01:13:04;18.00;99.90
30280;DHT22;17097;50.916;5.344;2022-08-21T01:15:34;18.00;99.90
30280;DHT22;17097;50.916;5.344;2022-08-21T01:18:06;17.90;99.90
30280;DHT22;17097;50.916;5.344;2022-08-21T01:20:33;18.00;99.90
30280;DHT22;17097;50.916;5.344;2022-08-21T01:23:01;18.00;99.90
30280;DHT22;17097;50.916;5.344;2022-08-21T01:25:27;17.90;99.90
30280;DHT22;17097;50.916;5.344;2022-08-21T01:27:53;17.80;99.90
30280;DHT22;17097;50.916;5.344;2022-08-21T01:30:22;17.80;99.90
30280;DHT22;17097;50.916;5.344;2022-08-21T01:32:50;17.80;99.90
30280;DHT22;17097;50.916;5.344;2022-08-21T01:35:18;17.80;99.90
30280;DHT22;17097;50.916;5.344;2022-08-21T01:37:44;17.80;99.90
30280;DHT22;17097;50.916;5.344;2022-08-21T01:40:10;17.80;99.90
30280;DHT22;17097;50.916;5.344;2022-08-21T01:42:39;17.80;99.90
30280;DHT22;17097;50.916;5.344;2022-08-21T01:45:06;17.70;99.90
30280;DHT22;17097;50.916;5.344;2022-08-21T01:47:33;17.70;99.90
30280;DHT22;17097;50.916;5.344;2022-08-21T01:49:59;17.70;99.90
30280;DHT22;17097;50.916;5.344;2022-08-21T01:52:25;17.70;99.90
30280;DHT22;17097;50.916;5.344;2022-08-21T01:54:51;17.60;99.90
30280;DHT22;17097;50.916;5.344;2022-08-21T01:57:16;17.50;99.90
30280;DHT22;17097;50.916;5.344;2022-08-21T01:59:42;17.50;99.90
30280;DHT22;17097;50.916;5.344;2022-08-21T02:02:08;17.50;99.90
30280;DHT22;17097;50.916;5.344;2022-08-21T02:04:33;17.50;99.90
30280;DHT22;17097;50.916;5.344;2022-08-21T02:07:00;17.40;99.90
30280;DHT22;17097;50.916;5.344;2022-08-21T02:09:26;17.40;99.90
30280;DHT22;17097;50.916;5.344;2022-08-21T02:11:52;17.40;99.90
30280;DHT22;17097;50.916;5.344;2022-08-21T02:14:18;17.30;99.90
30280;DHT22;17097;50.916;5.344;2022-08-21T02:16:44;17.30;99.90
30280;DHT22;17097;50.916;5.344;2022-08-21T02:19:12;17.30;99.90
30280;DHT22;17097;50.916;5.344;2022-08-21T02:21:38;17.30;99.90
30280;DHT22;17097;50.916;5.344;2022-08-21T02:24:04;17.40;99.90
30280;DHT22;17097;50.916;5.344;2022-08-21T02:26:30;17.40;99.90
30280;DHT22;17097;50.916;5.344;2022-08-21T02:28:55;17.30;99.90
30280;DHT22;17097;50.916;5.344;2022-08-21T02:31:21;17.30;99.90
30280;DHT22;17097;50.916;5.344;2022-08-21T02:33:47;17.20;99.90
30280;DHT22;17097;50.916;5.344;2022-08-21T02:36:12;17.20;99.90
30280;DHT22;17097;50.916;5.344;2022-08-21T02:38:41;17.20;99.90
30280;DHT22;17097;50.916;5.344;2022-08-21T02:41:12;17.10;99.90
30280;DHT22;17097;50.916;5.344;2022-08-21T02:43:38;17.10;99.90
30280;DHT22;17097;50.916;5.344;2022-08-21T02:46:05;17.00;99.90
30280;DHT22;17097;50.916;5.344;2022-08-21T02:48:33;17.00;99.90
30280;DHT22;17097;50.916;5.344;2022-08-21T02:51:08;17.00;99.90
30280;DHT22;17097;50.916;5.344;2022-08-21T02:53:34;17.00;99.90
30280;DHT22;17097;50.916;5.344;2022-08-21T02:56:03;17.10;99.90
30280;DHT22;17097;50.916;5.344;2022-08-21T02:58:33;17.00;99.90
30280;DHT22;17097;50.916;5.344;2022-08-21T03:00:59;17.10;99.90
30280;DHT22;17097;50.916;5.344;2022-08-21T03:03:26;17.00;99.90
30280;DHT22;17097;50.916;5.344;2022-08-21T03:05:52;17.00;99.90
30280;DHT22;17097;50.916;5.344;2022-08-21T03:08:19;16.90;99.90
30280;DHT22;17097;50.916;5.344;2022-08-21T03:10:48;16.90;99.90
30280;DHT22;17097;50.916;5.344;2022-08-21T03:13:15;16.90;99.90
30280;DHT22;17097;50.916;5.344;2022-08-21T03:15:42;16.90;99.90
30280;DHT22;17097;50.916;5.344;2022-08-21T03:18:08;16.90;99.90
30280;DHT22;17097;50.916;5.344;2022-08-21T03:20:35;16.90;99.90
30280;DHT22;17097;50.916;5.344;2022-08-21T03:23:01;16.90;99.90
30280;DHT22;17097;50.916;5.344;2022-08-21T03:25:29;16.80;99.90
30280;DHT22;17097;50.916;5.344;2022-08-21T03:27:58;16.90;99.90
30280;DHT22;17097;50.916;5.344;2022-08-21T03:30:23;16.90;99.90
30280;DHT22;17097;50.916;5.344;2022-08-21T03:32:49;16.90;99.90
30280;DHT22;17097;50.916;5.344;2022-08-21T03:35:16;16.90;99.90
30280;DHT22;17097;50.916;5.344;2022-08-21T03:37:42;16.80;99.90
30280;DHT22;17097;50.916;5.344;2022-08-21T03:40:10;16.80;99.90
30280;DHT22;17097;50.916;5.344;2022-08-21T03:42:37;16.80;99.90
30280;DHT22;17097;50.916;5.344;2022-08-21T03:45:03;16.80;99.90
30280;DHT22;17097;50.916;5.344;2022-08-21T03:47:28;16.80;99.90
30280;DHT22;17097;50.916;5.344;2022-08-21T03:49:54;16.80;99.90
30280;DHT22;17097;50.916;5.344;2022-08-21T03:52:20;16.70;99.90
30280;DHT22;17097;50.916;5.344;2022-08-21T03:54:45;16.70;99.90
30280;DHT22;17097;50.916;5.344;2022-08-21T03:57:11;16.80;99.90
30280;DHT22;17097;50.916;5.344;2022-08-21T03:59:37;16.70;99.90
30280;DHT22;17097;50.916;5.344;2022-08-21T04:02:06;16.70;99.90
30280;DHT22;17097;50.916;5.344;2022-08-21T04:04:33;16.80;99.90
30280;DHT22;17097;50.916;5.344;2022-08-21T04:06:59;16.70;99.90
30280;DHT22;17097;50.916;5.344;2022-08-21T04:09:25;16.70;99.90
30280;DHT22;17097;50.916;5.344;2022-08-21T04:11:51;16.60;99.90
30280;DHT22;17097;50.916;5.344;2022-08-21T04:14:17;16.60;99.90
30280;DHT22;17097;50.916;5.344;2022-08-21T04:16:44;16.60;99.90
30280;DHT22;17097;50.916;5.344;2022-08-21T04:19:10;16.60;99.90
30280;DHT22;17097;50.916;5.344;2022-08-21T04:21:37;16.50;99.90
30280;DHT22;17097;50.916;5.344;2022-08-21T04:24:08;16.60;99.90
30280;DHT22;17097;50.916;5.344;2022-08-21T04:26:35;16.50;99.90
30280;DHT22;17097;50.916;5.344;2022-08-21T04:29:01;16.50;99.90
30280;DHT22;17097;50.916;5.344;2022-08-21T04:31:27;16.40;99.90
30280;DHT22;17097;50.916;5.344;2022-08-21T04:33:54;16.50;99.90
30280;DHT22;17097;50.916;5.344;2022-08-21T04:36:20;16.40;99.90
30280;DHT22;17097;50.916;5.344;2022-08-21T04:38:45;16.50;99.90
30280;DHT22;17097;50.916;5.344;2022-08-21T04:41:11;16.40;99.90
30280;DHT22;17097;50.916;5.344;2022-08-21T04:43:38;16.40;99.90
30280;DHT22;17097;50.916;5.344;2022-08-21T04:46:04;16.40;99.90
30280;DHT22;17097;50.916;5.344;2022-08-21T04:48:31;16.30;99.90
30280;DHT22;17097;50.916;5.344;2022-08-21T04:51:03;16.30;99.90
30280;DHT22;17097;50.916;5.344;2022-08-21T04:53:46;16.30;99.90
30280;DHT22;17097;50.916;5.344;2022-08-21T04:56:19;16.30;99.90
30280;DHT22;17097;50.916;5.344;2022-08-21T04:58:45;16.30;99.90
30280;DHT22;17097;50.916;5.344;2022-08-21T05:01:17;16.30;99.90
30280;DHT22;17097;50.916;5.344;2022-08-21T05:03:44;16.30;99.90
30280;DHT22;17097;50.916;5.344;2022-08-21T05:06:12;16.30;99.90
30280;DHT22;17097;50.916;5.344;2022-08-21T05:08:41;16.30;99.90
30280;DHT22;17097;50.916;5.344;2022-08-21T05:11:09;16.30;99.90
30280;DHT22;17097;50.916;5.344;2022-08-21T05:13:35;16.30;99.90
30280;DHT22;17097;50.916;5.344;2022-08-21T05:16:01;16.30;99.90
30280;DHT22;17097;50.916;5.344;2022-08-21T05:18:26;16.40;99.90
30280;DHT22;17097;50.916;5.344;2022-08-21T05:20:52;16.40;99.90
30280;DHT22;17097;50.916;5.344;2022-08-21T05:23:18;16.40;99.90
30280;DHT22;17097;50.916;5.344;2022-08-21T05:25:43;16.50;99.90
30280;DHT22;17097;50.916;5.344;2022-08-21T05:28:09;16.60;99.90
30280;DHT22;17097;50.916;5.344;2022-08-21T05:30:36;16.60;99.90
30280;DHT22;17097;50.916;5.344;2022-08-21T05:33:04;16.60;99.90
30280;DHT22;17097;50.916;5.344;2022-08-21T05:35:31;16.60;99.90
30280;DHT22;17097;50.916;5.344;2022-08-21T05:37:57;16.60;99.90
30280;DHT22;17097;50.916;5.344;2022-08-21T05:40:24;16.70;99.90
30280;DHT22;17097;50.916;5.344;2022-08-21T05:42:51;16.70;99.90
30280;DHT22;17097;50.916;5.344;2022-08-21T05:45:17;16.80;99.90
30280;DHT22;17097;50.916;5.344;2022-08-21T05:47:43;16.80;99.90
30280;DHT22;17097;50.916;5.344;2022-08-21T05:50:09;16.80;99.90
30280;DHT22;17097;50.916;5.344;2022-08-21T05:52:35;16.90;99.90
30280;DHT22;17097;50.916;5.344;2022-08-21T05:55:00;17.00;99.90
30280;DHT22;17097;50.916;5.344;2022-08-21T05:57:26;17.00;99.90
30280;DHT22;17097;50.916;5.344;2022-08-21T05:59:52;17.10;99.90
30280;DHT22;17097;50.916;5.344;2022-08-21T06:02:19;17.20;99.90
30280;DHT22;17097;50.916;5.344;2022-08-21T06:04:45;17.20;99.90
30280;DHT22;17097;50.916;5.344;2022-08-21T06:07:11;17.20;99.90
30280;DHT22;17097;50.916;5.344;2022-08-21T06:09:37;17.30;99.90
30280;DHT22;17097;50.916;5.344;2022-08-21T06:12:11;17.50;99.90
30280;DHT22;17097;50.916;5.344;2022-08-21T06:14:39;17.40;99.90
30280;DHT22;17097;50.916;5.344;2022-08-21T06:17:06;17.40;99.90
30280;DHT22;17097;50.916;5.344;2022-08-21T06:19:34;17.50;99.90
30280;DHT22;17097;50.916;5.344;2022-08-21T06:21:59;17.60;99.90
30280;DHT22;17097;50.916;5.344;2022-08-21T06:24:26;17.60;99.90
30280;DHT22;17097;50.916;5.344;2022-08-21T06:26:52;17.70;99.90
30280;DHT22;17097;50.916;5.344;2022-08-21T06:29:18;17.70;99.90
30280;DHT22;17097;50.916;5.344;2022-08-21T06:31:46;17.70;99.90
30280;DHT22;17097;50.916;5.344;2022-08-21T06:34:11;17.70;99.90
30280;DHT22;17097;50.916;5.344;2022-08-21T06:36:38;17.80;99.90
30280;DHT22;17097;50.916;5.344;2022-08-21T06:39:03;17.90;99.90
30280;DHT22;17097;50.916;5.344;2022-08-21T06:41:29;18.00;99.90
30280;DHT22;17097;50.916;5.344;2022-08-21T06:43:56;18.00;99.90
30280;DHT22;17097;50.916;5.344;2022-08-21T06:46:23;18.10;99.90
30280;DHT22;17097;50.916;5.344;2022-08-21T06:48:49;18.20;99.90
30280;DHT22;17097;50.916;5.344;2022-08-21T06:51:15;18.30;99.90
30280;DHT22;17097;50.916;5.344;2022-08-21T06:53:41;18.30;99.90
30280;DHT22;17097;50.916;5.344;2022-08-21T06:56:07;18.30;99.90
30280;DHT22;17097;50.916;5.344;2022-08-21T06:58:33;18.50;99.90
30280;DHT22;17097;50.916;5.344;2022-08-21T07:00:59;18.70;99.90
30280;DHT22;17097;50.916;5.344;2022-08-21T07:03:32;18.70;99.90
30280;DHT22;17097;50.916;5.344;2022-08-21T07:05:58;18.80;99.90
30280;DHT22;17097;50.916;5.344;2022-08-21T07:08:25;18.80;99.90
30280;DHT22;17097;50.916;5.344;2022-08-21T07:10:52;19.00;99.90
30280;DHT22;17097;50.916;5.344;2022-08-21T07:13:18;19.00;99.90
30280;DHT22;17097;50.916;5.344;2022-08-21T07:15:44;19.00;99.90
30280;DHT22;17097;50.916;5.344;2022-08-21T07:18:10;19.10;99.90
30280;DHT22;17097;50.916;5.344;2022-08-21T07:20:36;19.30;99.90
30280;DHT22;17097;50.916;5.344;2022-08-21T07:23:04;19.40;99.90
30280;DHT22;17097;50.916;5.344;2022-08-21T07:25:30;19.60;99.90
30280;DHT22;17097;50.916;5.344;2022-08-21T07:27:56;19.70;99.90
30280;DHT22;17097;50.916;5.344;2022-08-21T07:30:23;19.70;99.90
30280;DHT22;17097;50.916;5.344;2022-08-21T07:32:49;19.80;99.90
30280;DHT22;17097;50.916;5.344;2022-08-21T07:35:15;19.90;99.90
30280;DHT22;17097;50.916;5.344;2022-08-21T07:37:41;19.90;99.90
30280;DHT22;17097;50.916;5.344;2022-08-21T07:40:07;20.10;99.90
30280;DHT22;17097;50.916;5.344;2022-08-21T07:42:33;20.20;99.90
30280;DHT22;17097;50.916;5.344;2022-08-21T07:44:59;20.30;99.90
30280;DHT22;17097;50.916;5.344;2022-08-21T07:47:24;20.30;99.90
30280;DHT22;17097;50.916;5.344;2022-08-21T07:49:50;20.50;99.90
30280;DHT22;17097;50.916;5.344;2022-08-21T07:52:16;20.50;99.90
30280;DHT22;17097;50.916;5.344;2022-08-21T07:54:41;20.60;99.90
30280;DHT22;17097;50.916;5.344;2022-08-21T07:57:07;20.60;99.90
30280;DHT22;17097;50.916;5.344;2022-08-21T07:59:32;20.70;99.90
30280;DHT22;17097;50.916;5.344;2022-08-21T08:01:58;20.70;99.90
30280;DHT22;17097;50.916;5.344;2022-08-21T08:04:24;20.70;99.90
30280;DHT22;17097;50.916;5.344;2022-08-21T08:06:50;21.00;99.90
30280;DHT22;17097;50.916;5.344;2022-08-21T08:09:15;20.90;99.90
30280;DHT22;17097;50.916;5.344;2022-08-21T08:11:43;20.90;99.90
30280;DHT22;17097;50.916;5.344;2022-08-21T08:14:10;21.00;99.90
30280;DHT22;17097;50.916;5.344;2022-08-21T08:16:36;21.30;99.90
30280;DHT22;17097;50.916;5.344;2022-08-21T08:19:01;21.40;99.90
30280;DHT22;17097;50.916;5.344;2022-08-21T08:21:28;21.30;99.90
30280;DHT22;17097;50.916;5.344;2022-08-21T08:23:54;21.40;99.90
30280;DHT22;17097;50.916;5.344;2022-08-21T08:26:20;21.40;99.90
30280;DHT22;17097;50.916;5.344;2022-08-21T08:28:46;21.30;99.90
30280;DHT22;17097;50.916;5.344;2022-08-21T08:31:13;21.40;99.90
30280;DHT22;17097;50.916;5.344;2022-08-21T08:33:39;21.50;99.90
30280;DHT22;17097;50.916;5.344;2022-08-21T08:36:11;21.60;99.90
30280;DHT22;17097;50.916;5.344;2022-08-21T08:38:37;21.50;99.90
30280;DHT22;17097;50.916;5.344;2022-08-21T08:41:19;21.90;99.90
30280;DHT22;17097;50.916;5.344;2022-08-21T08:43:52;22.10;99.90
30280;DHT22;17097;50.916;5.344;2022-08-21T08:46:28;22.20;99.90
30280;DHT22;17097;50.916;5.344;2022-08-21T08:49:00;22.30;99.90
30280;DHT22;17097;50.916;5.344;2022-08-21T08:51:48;22.60;99.90
30280;DHT22;17097;50.916;5.344;2022-08-21T08:56:58;22.70;99.90
30280;DHT22;17097;50.916;5.344;2022-08-21T08:59:29;22.90;99.90
30280;DHT22;17097;50.916;5.344;2022-08-21T09:01:58;22.80;99.90
30280;DHT22;17097;50.916;5.344;2022-08-21T09:04:25;22.80;99.90
30280;DHT22;17097;50.916;5.344;2022-08-21T09:10:12;23.30;99.90
30280;DHT22;17097;50.916;5.344;2022-08-21T09:12:56;23.80;99.90
30280;DHT22;17097;50.916;5.344;2022-08-21T09:28:34;27.80;95.20
30280;DHT22;17097;50.916;5.344;2022-08-21T09:34:09;27.50;94.30
30280;DHT22;17097;50.916;5.344;2022-08-21T09:36:40;27.80;94.10
30280;DHT22;17097;50.916;5.344;2022-08-21T09:39:08;28.10;93.00
30280;DHT22;17097;50.916;5.344;2022-08-21T09:41:36;28.30;92.10
30280;DHT22;17097;50.916;5.344;2022-08-21T09:44:07;28.50;91.80
30280;DHT22;17097;50.916;5.344;2022-08-21T09:46:33;28.90;90.60
30280;DHT22;17097;50.916;5.344;2022-08-21T09:49:01;29.10;91.00
30280;DHT22;17097;50.916;5.344;2022-08-21T09:51:33;29.50;88.60
30280;DHT22;17097;50.916;5.344;2022-08-21T09:56:34;30.00;82.30
30280;DHT22;17097;50.916;5.344;2022-08-21T09:59:28;30.40;81.00
30280;DHT22;17097;50.916;5.344;2022-08-21T10:01:58;30.70;78.80
30280;DHT22;17097;50.916;5.344;2022-08-21T10:04:32;30.30;79.70
30280;DHT22;17097;50.916;5.344;2022-08-21T10:07:13;30.40;78.90
30280;DHT22;17097;50.916;5.344;2022-08-21T10:09:40;30.70;78.50
30280;DHT22;17097;50.916;5.344;2022-08-21T10:12:21;30.50;76.90
30280;DHT22;17097;50.916;5.344;2022-08-21T10:17:27;31.00;75.80
30280;DHT22;17097;50.916;5.344;2022-08-21T10:30:54;30.40;74.20
30280;DHT22;17097;50.916;5.344;2022-08-21T10:44:17;29.70;75.70
30280;DHT22;17097;50.916;5.344;2022-08-21T10:47:11;29.80;75.70
30280;DHT22;17097;50.916;5.344;2022-08-21T10:55:55;29.80;74.30
30280;DHT22;17097;50.916;5.344;2022-08-21T10:58:37;29.40;75.90
30280;DHT22;17097;50.916;5.344;2022-08-21T11:01:13;29.10;78.10
30280;DHT22;17097;50.916;5.344;2022-08-21T11:06:31;28.50;78.90
30280;DHT22;17097;50.916;5.344;2022-08-21T11:09:14;28.10;79.40
30280;DHT22;17097;50.916;5.344;2022-08-21T11:11:57;28.20;80.00
30280;DHT22;17097;50.916;5.344;2022-08-21T11:17:11;28.00;81.50
30280;DHT22;17097;50.916;5.344;2022-08-21T11:19:48;28.00;81.70
30280;DHT22;17097;50.916;5.344;2022-08-21T11:22:33;28.50;81.80
30280;DHT22;17097;50.916;5.344;2022-08-21T11:25:07;28.80;79.90
30280;DHT22;17097;50.916;5.344;2022-08-21T11:30:09;29.10;77.70
30280;DHT22;17097;50.916;5.344;2022-08-21T11:33:02;29.00;78.70
30280;DHT22;17097;50.916;5.344;2022-08-21T11:38:36;28.90;80.30
30280;DHT22;17097;50.916;5.344;2022-08-21T11:46:59;28.40;80.60
30280;DHT22;17097;50.916;5.344;2022-08-21T11:50:39;28.30;80.50
30280;DHT22;17097;50.916;5.344;2022-08-21T11:52:38;28.10;82.30
30280;DHT22;17097;50.916;5.344;2022-08-21T11:57:59;27.80;84.30
30280;DHT22;17097;50.916;5.344;2022-08-21T12:00:33;27.70;84.80
30280;DHT22;17097;50.916;5.344;2022-08-21T12:03:31;27.50;85.80
30280;DHT22;17097;50.916;5.344;2022-08-21T12:06:00;27.10;86.50
30280;DHT22;17097;50.916;5.344;2022-08-21T12:08:32;27.00;88.10
30280;DHT22;17097;50.916;5.344;2022-08-21T12:13:29;26.90;88.10
30280;DHT22;17097;50.916;5.344;2022-08-21T12:16:15;27.00;88.40
30280;DHT22;17097;50.916;5.344;2022-08-21T12:18:42;27.40;87.60
30280;DHT22;17097;50.916;5.344;2022-08-21T12:21:27;27.40;87.50
30280;DHT22;17097;50.916;5.344;2022-08-21T12:24:15;27.30;87.50
30280;DHT22;17097;50.916;5.344;2022-08-21T12:26:58;26.90;87.90
30280;DHT22;17097;50.916;5.344;2022-08-21T12:29:30;27.00;86.50
30280;DHT22;17097;50.916;5.344;2022-08-21T12:34:37;26.90;86.00
30280;DHT22;17097;50.916;5.344;2022-08-21T12:37:17;26.60;85.80
30280;DHT22;17097;50.916;5.344;2022-08-21T12:39:47;26.40;83.90
30280;DHT22;17097;50.916;5.344;2022-08-21T12:44:53;26.30;87.30
30280;DHT22;17097;50.916;5.344;2022-08-21T12:50:15;26.30;87.20
30280;DHT22;17097;50.916;5.344;2022-08-21T12:52:51;26.30;87.50
30280;DHT22;17097;50.916;5.344;2022-08-21T12:55:29;26.50;86.70
30280;DHT22;17097;50.916;5.344;2022-08-21T12:57:56;26.50;86.20
30280;DHT22;17097;50.916;5.344;2022-08-21T13:00:25;26.70;85.60
30280;DHT22;17097;50.916;5.344;2022-08-21T13:02:51;26.80;82.00
30280;DHT22;17097;50.916;5.344;2022-08-21T13:05:43;26.80;81.20
30280;DHT22;17097;50.916;5.344;2022-08-21T13:08:11;26.60;84.70
30280;DHT22;17097;50.916;5.344;2022-08-21T13:10:39;26.60;84.00
30280;DHT22;17097;50.916;5.344;2022-08-21T13:13:19;26.70;84.00
30280;DHT22;17097;50.916;5.344;2022-08-21T13:15:45;26.80;84.00
30280;DHT22;17097;50.916;5.344;2022-08-21T13:18:25;26.90;82.50
30280;DHT22;17097;50.916;5.344;2022-08-21T13:20:51;27.40;81.70
30280;DHT22;17097;50.916;5.344;2022-08-21T13:23:26;27.60;78.70
30280;DHT22;17097;50.916;5.344;2022-08-21T13:25:52;27.60;77.20
30280;DHT22;17097;50.916;5.344;2022-08-21T13:28:18;27.50;77.40
30280;DHT22;17097;50.916;5.344;2022-08-21T13:30:55;27.60;77.20
30280;DHT22;17097;50.916;5.344;2022-08-21T13:33:23;27.80;79.30
30280;DHT22;17097;50.916;5.344;2022-08-21T13:35:57;28.00;77.40
30280;DHT22;17097;50.916;5.344;2022-08-21T13:38:36;28.30;76.60
30280;DHT22;17097;50.916;5.344;2022-08-21T13:43:45;28.40;72.80
30280;DHT22;17097;50.916;5.344;2022-08-21T13:46:13;28.40;72.40
30280;DHT22;17097;50.916;5.344;2022-08-21T13:48:41;28.40;74.70
30280;DHT22;17097;50.916;5.344;2022-08-21T13:51:08;28.10;76.50
30280;DHT22;17097;50.916;5.344;2022-08-21T13:53:45;28.20;74.70
30280;DHT22;17097;50.916;5.344;2022-08-21T13:56:23;28.20;75.50
30280;DHT22;17097;50.916;5.344;2022-08-21T13:58:51;28.40;74.70
30280;DHT22;17097;50.916;5.344;2022-08-21T14:01:30;28.40;73.60
30280;DHT22;17097;50.916;5.344;2022-08-21T14:04:18;28.20;74.60
30280;DHT22;17097;50.916;5.344;2022-08-21T14:06:45;28.50;74.30
30280;DHT22;17097;50.916;5.344;2022-08-21T14:09:31;28.40;73.90
30280;DHT22;17097;50.916;5.344;2022-08-21T14:11:59;28.50;73.40
30280;DHT22;17097;50.916;5.344;2022-08-21T14:14:32;28.30;73.60
30280;DHT22;17097;50.916;5.344;2022-08-21T14:17:05;28.30;74.50
30280;DHT22;17097;50.916;5.344;2022-08-21T14:19:57;28.00;75.30
30280;DHT22;17097;50.916;5.344;2022-08-21T14:22:45;27.80;75.80
30280;DHT22;17097;50.916;5.344;2022-08-21T14:25:13;27.50;76.00
30280;DHT22;17097;50.916;5.344;2022-08-21T14:27:45;27.50;76.60
30280;DHT22;17097;50.916;5.344;2022-08-21T14:30:21;27.30;78.30
30280;DHT22;17097;50.916;5.344;2022-08-21T14:32:47;27.20;79.00
30280;DHT22;17097;50.916;5.344;2022-08-21T14:35:13;27.20;78.20
30280;DHT22;17097;50.916;5.344;2022-08-21T14:37:43;27.20;78.40
30280;DHT22;17097;50.916;5.344;2022-08-21T14:40:10;27.20;78.40
30280;DHT22;17097;50.916;5.344;2022-08-21T14:42:37;27.20;78.40
30280;DHT22;17097;50.916;5.344;2022-08-21T14:45:11;27.60;77.80
30280;DHT22;17097;50.916;5.344;2022-08-21T14:47:38;27.60;78.70
30280;DHT22;17097;50.916;5.344;2022-08-21T14:50:04;27.50;78.00
30280;DHT22;17097;50.916;5.344;2022-08-21T14:52:30;27.40;77.80
30280;DHT22;17097;50.916;5.344;2022-08-21T14:54:56;27.30;79.60
30280;DHT22;17097;50.916;5.344;2022-08-21T14:57:29;27.40;79.80
30280;DHT22;17097;50.916;5.344;2022-08-21T14:59:55;27.30;80.10
30280;DHT22;17097;50.916;5.344;2022-08-21T15:02:20;27.50;77.70
30280;DHT22;17097;50.916;5.344;2022-08-21T15:04:46;27.50;78.50
30280;DHT22;17097;50.916;5.344;2022-08-21T15:07:12;27.60;77.60
30280;DHT22;17097;50.916;5.344;2022-08-21T15:09:37;27.70;77.60
30280;DHT22;17097;50.916;5.344;2022-08-21T15:12:04;27.60;78.40
30280;DHT22;17097;50.916;5.344;2022-08-21T15:14:34;27.70;78.70
30280;DHT22;17097;50.916;5.344;2022-08-21T15:17:00;27.70;78.00
30280;DHT22;17097;50.916;5.344;2022-08-21T15:19:28;27.60;78.60
30280;DHT22;17097;50.916;5.344;2022-08-21T15:21:55;27.00;80.00
30280;DHT22;17097;50.916;5.344;2022-08-21T15:24:20;27.00;81.50
30280;DHT22;17097;50.916;5.344;2022-08-21T15:26:46;27.10;81.90
30280;DHT22;17097;50.916;5.344;2022-08-21T15:29:12;27.30;81.40
30280;DHT22;17097;50.916;5.344;2022-08-21T15:31:59;27.10;81.50
30280;DHT22;17097;50.916;5.344;2022-08-21T15:34:27;27.40;81.10
30280;DHT22;17097;50.916;5.344;2022-08-21T15:36:57;27.20;81.40
30280;DHT22;17097;50.916;5.344;2022-08-21T15:39:26;27.50;80.20
30280;DHT22;17097;50.916;5.344;2022-08-21T15:41:52;27.40;79.50
30280;DHT22;17097;50.916;5.344;2022-08-21T15:44:18;27.00;80.60
30280;DHT22;17097;50.916;5.344;2022-08-21T15:46:44;27.20;80.50
30280;DHT22;17097;50.916;5.344;2022-08-21T15:49:11;27.20;81.30
30280;DHT22;17097;50.916;5.344;2022-08-21T15:51:36;27.20;81.40
30280;DHT22;17097;50.916;5.344;2022-08-21T15:54:02;27.00;81.30
30280;DHT22;17097;50.916;5.344;2022-08-21T15:56:39;27.10;80.90
30280;DHT22;17097;50.916;5.344;2022-08-21T15:59:12;27.10;80.60
30280;DHT22;17097;50.916;5.344;2022-08-21T16:01:39;26.90;80.30
30280;DHT22;17097;50.916;5.344;2022-08-21T16:04:05;26.80;81.60
30280;DHT22;17097;50.916;5.344;2022-08-21T16:06:31;27.00;82.20
30280;DHT22;17097;50.916;5.344;2022-08-21T16:08:58;27.20;81.60
30280;DHT22;17097;50.916;5.344;2022-08-21T16:11:23;27.40;80.50
30280;DHT22;17097;50.916;5.344;2022-08-21T16:13:50;27.50;79.60
30280;DHT22;17097;50.916;5.344;2022-08-21T16:16:20;27.50;81.70
30280;DHT22;17097;50.916;5.344;2022-08-21T16:18:47;27.50;79.00
30280;DHT22;17097;50.916;5.344;2022-08-21T16:21:14;27.40;79.50
30280;DHT22;17097;50.916;5.344;2022-08-21T16:23:40;26.90;80.10
30280;DHT22;17097;50.916;5.344;2022-08-21T16:26:07;26.90;79.80
30280;DHT22;17097;50.916;5.344;2022-08-21T16:28:33;26.80;79.70
30280;DHT22;17097;50.916;5.344;2022-08-21T16:31:00;26.40;80.80
30280;DHT22;17097;50.916;5.344;2022-08-21T16:33:28;26.40;80.90
30280;DHT22;17097;50.916;5.344;2022-08-21T16:35:55;26.40;82.40
30280;DHT22;17097;50.916;5.344;2022-08-21T16:38:22;26.30;82.60
30280;DHT22;17097;50.916;5.344;2022-08-21T16:40:48;26.40;82.90
30280;DHT22;17097;50.916;5.344;2022-08-21T16:43:14;26.40;83.00
30280;DHT22;17097;50.916;5.344;2022-08-21T16:45:40;26.40;83.30
30280;DHT22;17097;50.916;5.344;2022-08-21T16:48:06;26.40;83.30
30280;DHT22;17097;50.916;5.344;2022-08-21T16:50:35;26.40;82.30
30280;DHT22;17097;50.916;5.344;2022-08-21T16:53:01;26.30;83.70
30280;DHT22;17097;50.916;5.344;2022-08-21T16:55:26;26.40;83.70
30280;DHT22;17097;50.916;5.344;2022-08-21T16:57:53;26.40;84.40
30280;DHT22;17097;50.916;5.344;2022-08-21T17:00:20;26.30;83.80
30280;DHT22;17097;50.916;5.344;2022-08-21T17:02:48;26.20;84.60
30280;DHT22;17097;50.916;5.344;2022-08-21T17:05:15;26.10;85.00
30280;DHT22;17097;50.916;5.344;2022-08-21T17:07:43;26.00;84.90
30280;DHT22;17097;50.916;5.344;2022-08-21T17:10:10;26.00;85.50